sensor_id;sensor_type;location;lat;lon;timestamp;pressure;altitude;pressure_sealevel;temperature;humidity
10466;BME280;5280;42.600;23.556;2022-09-03T00:01:46;93351.63;;;16.81;100.00
10466;BME280;5280;42.600;23.556;2022-09-03T00:04:18;93372.16;;;16.80;100.00
10466;BME280;5280;42.600;23.556;2022-09-03T00:06:52;93359.66;;;16.81;100.00
10466;BME280;5280;42.600;23.556;2022-09-03T00:09:25;93361.19;;;16.83;100.00
10466;BME280;5280;42.600;23.556;2022-09-03T00:12:00;93367.16;;;16.85;100.00
10466;BME280;5280;42.600;23.556;2022-09-03T00:14:35;93372.38;;;16.87;100.00
10466;BME280;5280;42.600;23.556;2022-09-03T00:17:09;93355.28;;;16.79;100.00
10466;BME280;5280;42.600;23.556;2022-09-03T00:19:40;93379.25;;;16.97;100.00
10466;BME280;5280;42.600;23.556;2022-09-03T00:22:14;93385.44;;;16.98;100.00
10466;BME280;5280;42.600;23.556;2022-09-03T00:24:44;93364.34;;;16.87;100.00
10466;BME280;5280;42.600;23.556;2022-09-03T00:27:14;93373.91;;;16.97;100.00
10466;BME280;5280;42.600;23.556;2022-09-03T00:29:48;93388.63;;;17.01;100.00
10466;BME280;5280;42.600;23.556;2022-09-03T00:32:21;93388.97;;;17.06;100.00
10466;BME280;5280;42.600;23.556;2022-09-03T00:34:54;93337.63;;;16.78;100.00
10466;BME280;5280;42.600;23.556;2022-09-03T00:37:23;93378.81;;;17.10;100.00
10466;BME280;5280;42.600;23.556;2022-09-03T00:39:53;93371.44;;;17.04;100.00
10466;BME280;5280;42.600;23.556;2022-09-03T00:42:32;93382.50;;;17.17;100.00
10466;BME280;5280;42.600;23.556;2022-09-03T00:45:17;93377.84;;;17.19;100.00
10466;BME280;5280;42.600;23.556;2022-09-03T00:47:57;93387.44;;;17.04;100.00
10466;BME280;5280;42.600;23.556;2022-09-03T00:50:37;93381.94;;;16.97;100.00
10466;BME280;5280;42.600;23.556;2022-09-03T00:53:10;93368.88;;;16.94;100.00
10466;BME280;5280;42.600;23.556;2022-09-03T00:55:48;93385.09;;;16.93;100.00
10466;BME280;5280;42.600;23.556;2022-09-03T00:58:39;93382.41;;;16.93;100.00
10466;BME280;5280;42.600;23.556;2022-09-03T01:01:15;93385.09;;;16.93;100.00
10466;BME280;5280;42.600;23.556;2022-09-03T01:03:54;93383.25;;;16.93;100.00
10466;BME280;5280;42.600;23.556;2022-09-03T01:06:32;93364.78;;;16.74;100.00
10466;BME280;5280;42.600;23.556;2022-09-03T01:09:08;93386.56;;;16.87;100.00
10466;BME280;5280;42.600;23.556;2022-09-03T01:11:46;93378.84;;;16.84;100.00
10466;BME280;5280;42.600;23.556;2022-09-03T01:14:30;93376.00;;;16.77;100.00
10466;BME280;5280;42.600;23.556;2022-09-03T01:17:07;93351.53;;;16.64;100.00
10466;BME280;5280;42.600;23.556;2022-09-03T01:20:00;93366.09;;;16.70;100.00
10466;BME280;5280;42.600;23.556;2022-09-03T01:25:43;93376.47;;;16.73;100.00
10466;BME280;5280;42.600;23.556;2022-09-03T01:28:32;93368.97;;;16.76;100.00
10466;BME280;5280;42.600;23.556;2022-09-03T01:31:15;93375.41;;;16.66;100.00
10466;BME280;5280;42.600;23.556;2022-09-03T01:33:51;93374.78;;;16.72;100.00
10466;BME280;5280;42.600;23.556;2022-09-03T01:36:25;93373.81;;;16.73;100.00
10466;BME280;5280;42.600;23.556;2022-09-03T01:38:59;93387.44;;;16.70;100.00
10466;BME280;5280;42.600;23.556;2022-09-03T01:41:35;93382.09;;;16.70;100.00
10466;BME280;5280;42.600;23.556;2022-09-03T01:44:32;93389.59;;;16.66;100.00
10466;BME280;5280;42.600;23.556;2022-09-03T01:47:13;93399.06;;;16.61;100.00
10466;BME280;5280;42.600;23.556;2022-09-03T01:49:50;93410.47;;;16.71;100.00
10466;BME280;5280;42.600;23.556;2022-09-03T01:52:35;93414.22;;;16.60;100.00
10466;BME280;5280;42.600;23.556;2022-09-03T01:55:11;93415.38;;;16.58;100.00
10466;BME280;5280;42.600;23.556;2022-09-03T01:57:52;93416.34;;;16.57;100.00
10466;BME280;5280;42.600;23.556;2022-09-03T02:00:24;93402.97;;;16.49;100.00
10466;BME280;5280;42.600;23.556;2022-09-03T02:02:51;93419.31;;;16.54;100.00
10466;BME280;5280;42.600;23.556;2022-09-03T02:05:19;93413.97;;;16.54;100.00
10466;BME280;5280;42.600;23.556;2022-09-03T02:07:49;93413.97;;;16.54;100.00
10466;BME280;5280;42.600;23.556;2022-09-03T02:10:19;93413.78;;;16.47;100.00
10466;BME280;5280;42.600;23.556;2022-09-03T02:12:49;93409.59;;;16.45;100.00
10466;BME280;5280;42.600;23.556;2022-09-03T02:15:20;93350.22;;;15.99;100.00
10466;BME280;5280;42.600;23.556;2022-09-03T02:17:52;93396.44;;;16.25;100.00
10466;BME280;5280;42.600;23.556;2022-09-03T02:20:23;93384.19;;;16.15;100.00
10466;BME280;5280;42.600;23.556;2022-09-03T02:22:53;93389.44;;;16.24;100.00
10466;BME280;5280;42.600;23.556;2022-09-03T02:25:21;93396.44;;;16.25;100.00
10466;BME280;5280;42.600;23.556;2022-09-03T02:27:50;93406.19;;;16.34;100.00
10466;BME280;5280;42.600;23.556;2022-09-03T02:30:17;93399.84;;;16.35;100.00
10466;BME280;5280;42.600;23.556;2022-09-03T02:32:44;93403.13;;;16.29;100.00
10466;BME280;5280;42.600;23.556;2022-09-03T02:35:12;93391.81;;;16.10;100.00
10466;BME280;5280;42.600;23.556;2022-09-03T02:37:39;93346.53;;;15.74;100.00
10466;BME280;5280;42.600;23.556;2022-09-03T02:40:07;93408.97;;;16.07;100.00
10466;BME280;5280;42.600;23.556;2022-09-03T02:42:35;93417.63;;;16.09;100.00
10466;BME280;5280;42.600;23.556;2022-09-03T02:45:09;93417.81;;;16.08;100.00
10466;BME280;5280;42.600;23.556;2022-09-03T02:47:39;93406.69;;;15.94;100.00
10466;BME280;5280;42.600;23.556;2022-09-03T02:50:09;93413.53;;;15.97;100.00
10466;BME280;5280;42.600;23.556;2022-09-03T02:52:37;93394.88;;;15.97;100.00
10466;BME280;5280;42.600;23.556;2022-09-03T02:55:05;93415.88;;;16.00;100.00
10466;BME280;5280;42.600;23.556;2022-09-03T02:57:32;93428.09;;;16.03;100.00
10466;BME280;5280;42.600;23.556;2022-09-03T02:59:58;93425.88;;;15.98;100.00
10466;BME280;5280;42.600;23.556;2022-09-03T03:02:25;93354.00;;;15.53;100.00
10466;BME280;5280;42.600;23.556;2022-09-03T03:04:52;93416.72;;;16.01;100.00
10466;BME280;5280;42.600;23.556;2022-09-03T03:07:20;93410.63;;;15.90;100.00
10466;BME280;5280;42.600;23.556;2022-09-03T03:09:48;93417.19;;;15.96;100.00
10466;BME280;5280;42.600;23.556;2022-09-03T03:12:15;93367.16;;;15.55;100.00
10466;BME280;5280;42.600;23.556;2022-09-03T03:14:43;93424.09;;;15.89;100.00
10466;BME280;5280;42.600;23.556;2022-09-03T03:17:10;93420.41;;;15.82;100.00
10466;BME280;5280;42.600;23.556;2022-09-03T03:19:37;93416.56;;;15.84;100.00
10466;BME280;5280;42.600;23.556;2022-09-03T03:22:04;93425.66;;;15.91;100.00
10466;BME280;5280;42.600;23.556;2022-09-03T03:24:30;93417.88;;;15.80;100.00
10466;BME280;5280;42.600;23.556;2022-09-03T03:27:00;93419.34;;;15.92;100.00
10466;BME280;5280;42.600;23.556;2022-09-03T03:29:30;93419.16;;;15.94;100.00
10466;BME280;5280;42.600;23.556;2022-09-03T03:31:57;93355.50;;;15.56;100.00
10466;BME280;5280;42.600;23.556;2022-09-03T03:34:24;93410.97;;;15.87;100.00
10466;BME280;5280;42.600;23.556;2022-09-03T03:36:51;93391.09;;;15.82;100.00
10466;BME280;5280;42.600;23.556;2022-09-03T03:39:18;93403.03;;;15.96;100.00
10466;BME280;5280;42.600;23.556;2022-09-03T03:41:45;93339.06;;;15.60;100.00
10466;BME280;5280;42.600;23.556;2022-09-03T03:44:13;93422.44;;;16.06;100.00
10466;BME280;5280;42.600;23.556;2022-09-03T03:46:41;93405.69;;;15.96;100.00
10466;BME280;5280;42.600;23.556;2022-09-03T03:49:09;93420.19;;;15.93;100.00
10466;BME280;5280;42.600;23.556;2022-09-03T03:51:37;93415.81;;;15.92;100.00
10466;BME280;5280;42.600;23.556;2022-09-03T03:54:05;93419.47;;;15.91;100.00
10466;BME280;5280;42.600;23.556;2022-09-03T03:56:32;93410.50;;;15.92;100.00
10466;BME280;5280;42.600;23.556;2022-09-03T03:58:59;93417.88;;;15.98;100.00
10466;BME280;5280;42.600;23.556;2022-09-03T04:01:28;93416.34;;;15.96;100.00
10466;BME280;5280;42.600;23.556;2022-09-03T04:03:56;93400.53;;;15.76;100.00
10466;BME280;5280;42.600;23.556;2022-09-03T04:06:24;93430.84;;;15.93;100.00
10466;BME280;5280;42.600;23.556;2022-09-03T04:08:52;93403.09;;;15.86;100.00
10466;BME280;5280;42.600;23.556;2022-09-03T04:11:20;93418.63;;;15.90;100.00
10466;BME280;5280;42.600;23.556;2022-09-03T04:13:48;93426.50;;;15.92;100.00
10466;BME280;5280;42.600;23.556;2022-09-03T04:16:16;93420.31;;;15.91;100.00
10466;BME280;5280;42.600;23.556;2022-09-03T04:18:45;93415.13;;;15.90;100.00
10466;BME280;5280;42.600;23.556;2022-09-03T04:21:14;93383.69;;;15.58;100.00
10466;BME280;5280;42.600;23.556;2022-09-03T04:23:43;93422.91;;;16.01;100.00
10466;BME280;5280;42.600;23.556;2022-09-03T04:26:14;93425.72;;;16.00;100.00
10466;BME280;5280;42.600;23.556;2022-09-03T04:28:41;93428.94;;;16.03;100.00
10466;BME280;5280;42.600;23.556;2022-09-03T04:31:11;93432.81;;;16.09;100.00
10466;BME280;5280;42.600;23.556;2022-09-03T04:33:38;93367.31;;;15.71;100.00
10466;BME280;5280;42.600;23.556;2022-09-03T04:36:08;93434.25;;;16.21;100.00
10466;BME280;5280;42.600;23.556;2022-09-03T04:38:38;93383.25;;;15.98;100.00
10466;BME280;5280;42.600;23.556;2022-09-03T04:41:07;93442.63;;;16.26;100.00
10466;BME280;5280;42.600;23.556;2022-09-03T04:43:34;93437.16;;;16.27;100.00
10466;BME280;5280;42.600;23.556;2022-09-03T04:46:03;93417.72;;;16.17;100.00
10466;BME280;5280;42.600;23.556;2022-09-03T04:48:32;93430.69;;;16.12;100.00
10466;BME280;5280;42.600;23.556;2022-09-03T04:51:01;93447.50;;;16.30;100.00
10466;BME280;5280;42.600;23.556;2022-09-03T04:53:32;93454.88;;;16.36;100.00
10466;BME280;5280;42.600;23.556;2022-09-03T04:55:59;93445.66;;;16.31;100.00
10466;BME280;5280;42.600;23.556;2022-09-03T04:58:26;93458.25;;;16.39;100.00
10466;BME280;5280;42.600;23.556;2022-09-03T05:00:52;93443.84;;;16.31;100.00
10466;BME280;5280;42.600;23.556;2022-09-03T05:03:19;93463.88;;;16.35;100.00
10466;BME280;5280;42.600;23.556;2022-09-03T05:05:56;93466.03;;;16.32;100.00
10466;BME280;5280;42.600;23.556;2022-09-03T05:08:27;93428.47;;;16.08;100.00
10466;BME280;5280;42.600;23.556;2022-09-03T05:10:59;93384.06;;;15.81;100.00
10466;BME280;5280;42.600;23.556;2022-09-03T05:13:26;93396.47;;;15.90;100.00
10466;BME280;5280;42.600;23.556;2022-09-03T05:15:58;93478.09;;;16.44;100.00
10466;BME280;5280;42.600;23.556;2022-09-03T05:18:25;93477.97;;;16.46;100.00
10466;BME280;5280;42.600;23.556;2022-09-03T05:20:57;93469.34;;;16.52;100.00
10466;BME280;5280;42.600;23.556;2022-09-03T05:23:25;93438.22;;;16.17;100.00
10466;BME280;5280;42.600;23.556;2022-09-03T05:25:54;93475.44;;;16.44;100.00
10466;BME280;5280;42.600;23.556;2022-09-03T05:28:24;93475.25;;;16.38;100.00
10466;BME280;5280;42.600;23.556;2022-09-03T05:30:58;93481.78;;;16.43;100.00
10466;BME280;5280;42.600;23.556;2022-09-03T05:33:25;93453.38;;;16.16;100.00
10466;BME280;5280;42.600;23.556;2022-09-03T05:36:00;93489.09;;;16.41;100.00
10466;BME280;5280;42.600;23.556;2022-09-03T05:38:27;93477.91;;;16.38;100.00
10466;BME280;5280;42.600;23.556;2022-09-03T05:40:57;93478.75;;;16.38;100.00
10466;BME280;5280;42.600;23.556;2022-09-03T05:43:25;93501.97;;;16.46;100.00
10466;BME280;5280;42.600;23.556;2022-09-03T05:45:56;93477.34;;;16.34;100.00
10466;BME280;5280;42.600;23.556;2022-09-03T05:48:23;93499.00;;;16.49;100.00
10466;BME280;5280;42.600;23.556;2022-09-03T05:50:58;93505.16;;;16.49;100.00
10466;BME280;5280;42.600;23.556;2022-09-03T05:53:25;93513.16;;;16.49;100.00
10466;BME280;5280;42.600;23.556;2022-09-03T05:55:54;93510.97;;;16.45;100.00
10466;BME280;5280;42.600;23.556;2022-09-03T05:58:22;93502.44;;;16.41;100.00
10466;BME280;5280;42.600;23.556;2022-09-03T06:00:51;93506.09;;;16.40;100.00
10466;BME280;5280;42.600;23.556;2022-09-03T06:03:17;93518.22;;;16.52;100.00
10466;BME280;5280;42.600;23.556;2022-09-03T06:05:49;93490.31;;;16.29;100.00
10466;BME280;5280;42.600;23.556;2022-09-03T06:08:17;93524.28;;;16.45;100.00
10466;BME280;5280;42.600;23.556;2022-09-03T06:10:44;93524.38;;;16.53;100.00
10466;BME280;5280;42.600;23.556;2022-09-03T06:13:11;93518.59;;;16.57;100.00
10466;BME280;5280;42.600;23.556;2022-09-03T06:15:38;93502.28;;;16.43;100.00
10466;BME280;5280;42.600;23.556;2022-09-03T06:18:06;93520.03;;;16.52;100.00
10466;BME280;5280;42.600;23.556;2022-09-03T06:20:33;93515.06;;;16.57;100.00
10466;BME280;5280;42.600;23.556;2022-09-03T06:23:00;93511.84;;;16.63;100.00
10466;BME280;5280;42.600;23.556;2022-09-03T06:25:27;93510.59;;;16.57;100.00
10466;BME280;5280;42.600;23.556;2022-09-03T06:27:54;93518.06;;;16.71;100.00
10466;BME280;5280;42.600;23.556;2022-09-03T06:30:21;93475.34;;;16.54;100.00
10466;BME280;5280;42.600;23.556;2022-09-03T06:32:49;93506.22;;;16.74;100.00
10466;BME280;5280;42.600;23.556;2022-09-03T06:35:18;93513.63;;;16.80;100.00
10466;BME280;5280;42.600;23.556;2022-09-03T06:37:45;93496.25;;;16.76;100.00
10466;BME280;5280;42.600;23.556;2022-09-03T06:40:11;93472.69;;;16.54;100.00
10466;BME280;5280;42.600;23.556;2022-09-03T06:42:38;93529.16;;;16.85;100.00
10466;BME280;5280;42.600;23.556;2022-09-03T06:45:07;93519.66;;;16.82;100.00
10466;BME280;5280;42.600;23.556;2022-09-03T06:47:34;93522.78;;;16.77;100.00
10466;BME280;5280;42.600;23.556;2022-09-03T06:50:01;93532.63;;;16.77;100.00
10466;BME280;5280;42.600;23.556;2022-09-03T06:52:29;93525.47;;;16.77;100.00
10466;BME280;5280;42.600;23.556;2022-09-03T06:54:56;93510.59;;;16.75;100.00
10466;BME280;5280;42.600;23.556;2022-09-03T06:57:23;93519.94;;;16.79;100.00
10466;BME280;5280;42.600;23.556;2022-09-03T06:59:50;93475.75;;;16.59;100.00
10466;BME280;5280;42.600;23.556;2022-09-03T07:02:18;93527.34;;;16.85;100.00
10466;BME280;5280;42.600;23.556;2022-09-03T07:04:47;93523.72;;;16.94;100.00
10466;BME280;5280;42.600;23.556;2022-09-03T07:07:15;93508.50;;;16.87;100.00
10466;BME280;5280;42.600;23.556;2022-09-03T07:09:43;93524.81;;;17.01;100.00
10466;BME280;5280;42.600;23.556;2022-09-03T07:12:10;93525.31;;;17.05;100.00
10466;BME280;5280;42.600;23.556;2022-09-03T07:14:40;93536.09;;;16.95;100.00
10466;BME280;5280;42.600;23.556;2022-09-03T07:17:07;93533.78;;;17.00;100.00
10466;BME280;5280;42.600;23.556;2022-09-03T07:19:33;93532.13;;;16.99;100.00
10466;BME280;5280;42.600;23.556;2022-09-03T07:22:00;93538.84;;;17.03;100.00
10466;BME280;5280;42.600;23.556;2022-09-03T07:24:27;93530.50;;;17.06;100.00
10466;BME280;5280;42.600;23.556;2022-09-03T07:26:55;93541.78;;;17.18;100.00
10466;BME280;5280;42.600;23.556;2022-09-03T07:29:23;93541.44;;;17.21;100.00
10466;BME280;5280;42.600;23.556;2022-09-03T07:31:50;93536.63;;;17.25;100.00
10466;BME280;5280;42.600;23.556;2022-09-03T07:34:16;93545.38;;;17.35;100.00
10466;BME280;5280;42.600;23.556;2022-09-03T07:36:45;93543.75;;;17.42;100.00
10466;BME280;5280;42.600;23.556;2022-09-03T07:39:15;93557.25;;;17.40;100.00
10466;BME280;5280;42.600;23.556;2022-09-03T07:41:44;93548.09;;;17.43;100.00
10466;BME280;5280;42.600;23.556;2022-09-03T07:44:17;93527.94;;;17.23;100.00
10466;BME280;5280;42.600;23.556;2022-09-03T07:46:45;93540.00;;;17.27;100.00
10466;BME280;5280;42.600;23.556;2022-09-03T07:49:15;93569.84;;;17.48;100.00
10466;BME280;5280;42.600;23.556;2022-09-03T07:51:44;93576.56;;;17.52;100.00
10466;BME280;5280;42.600;23.556;2022-09-03T07:54:15;93548.63;;;17.46;100.00
10466;BME280;5280;42.600;23.556;2022-09-03T07:56:41;93559.25;;;17.64;100.00
10466;BME280;5280;42.600;23.556;2022-09-03T07:59:08;93568.00;;;17.74;100.00
10466;BME280;5280;42.600;23.556;2022-09-03T08:01:38;93569.41;;;17.86;100.00
10466;BME280;5280;42.600;23.556;2022-09-03T08:04:05;93556.88;;;17.87;100.00
10466;BME280;5280;42.600;23.556;2022-09-03T08:06:32;93562.28;;;18.03;100.00
10466;BME280;5280;42.600;23.556;2022-09-03T08:09:01;93563.00;;;18.13;100.00
10466;BME280;5280;42.600;23.556;2022-09-03T08:11:29;93559.84;;;18.18;100.00
10466;BME280;5280;42.600;23.556;2022-09-03T08:13:57;93566.88;;;18.27;100.00
10466;BME280;5280;42.600;23.556;2022-09-03T08:16:28;93507.97;;;18.02;100.00
10466;BME280;5280;42.600;23.556;2022-09-03T08:18:56;93572.25;;;18.35;100.00
10466;BME280;5280;42.600;23.556;2022-09-03T08:21:24;93559.72;;;18.43;100.00
10466;BME280;5280;42.600;23.556;2022-09-03T08:23:54;93535.97;;;18.32;100.00
10466;BME280;5280;42.600;23.556;2022-09-03T08:26:27;93515.16;;;18.18;100.00
10466;BME280;5280;42.600;23.556;2022-09-03T08:28:54;93515.69;;;18.22;100.00
10466;BME280;5280;42.600;23.556;2022-09-03T08:31:22;93575.69;;;18.61;100.00
10466;BME280;5280;42.600;23.556;2022-09-03T08:33:50;93573.00;;;18.61;100.00
10466;BME280;5280;42.600;23.556;2022-09-03T08:36:30;93555.28;;;18.60;100.00
10466;BME280;5280;42.600;23.556;2022-09-03T08:38:59;93506.69;;;18.23;100.00
10466;BME280;5280;42.600;23.556;2022-09-03T08:41:41;93574.69;;;18.78;100.00
10466;BME280;5280;42.600;23.556;2022-09-03T08:44:20;93485.28;;;18.39;100.00
10466;BME280;5280;42.600;23.556;2022-09-03T08:46:52;93508.59;;;18.63;100.00
10466;BME280;5280;42.600;23.556;2022-09-03T08:49:26;93551.94;;;18.99;100.00
10466;BME280;5280;42.600;23.556;2022-09-03T08:52:00;93490.34;;;18.58;100.00
10466;BME280;5280;42.600;23.556;2022-09-03T08:54:29;93554.97;;;19.12;100.00
10466;BME280;5280;42.600;23.556;2022-09-03T08:57:00;93501.91;;;18.75;100.00
10466;BME280;5280;42.600;23.556;2022-09-03T08:59:29;93472.28;;;18.60;100.00
10466;BME280;5280;42.600;23.556;2022-09-03T09:02:07;93503.72;;;18.99;100.00
10466;BME280;5280;42.600;23.556;2022-09-03T09:04:57;93533.69;;;19.26;100.00
10466;BME280;5280;42.600;23.556;2022-09-03T09:07:35;93549.22;;;19.39;100.00
10466;BME280;5280;42.600;23.556;2022-09-03T09:10:11;93566.66;;;19.59;100.00
10466;BME280;5280;42.600;23.556;2022-09-03T09:12:46;93542.38;;;19.45;100.00
10466;BME280;5280;42.600;23.556;2022-09-03T09:15:27;93540.31;;;19.63;98.09
10466;BME280;5280;42.600;23.556;2022-09-03T09:18:04;93496.66;;;19.30;100.00
10466;BME280;5280;42.600;23.556;2022-09-03T09:20:42;93562.91;;;19.85;99.25
10466;BME280;5280;42.600;23.556;2022-09-03T09:23:18;93505.13;;;19.58;98.25
10466;BME280;5280;42.600;23.556;2022-09-03T09:25:53;93538.69;;;20.01;99.24
10466;BME280;5280;42.600;23.556;2022-09-03T09:28:24;93470.75;;;19.69;97.14
10466;BME280;5280;42.600;23.556;2022-09-03T09:30:54;93475.22;;;19.85;94.43
10466;BME280;5280;42.600;23.556;2022-09-03T09:33:23;93489.63;;;19.92;94.85
10466;BME280;5280;42.600;23.556;2022-09-03T09:35:53;93568.16;;;20.56;95.28
10466;BME280;5280;42.600;23.556;2022-09-03T09:38:29;93572.63;;;20.63;93.90
10466;BME280;5280;42.600;23.556;2022-09-03T09:41:08;93567.84;;;20.74;97.67
10466;BME280;5280;42.600;23.556;2022-09-03T09:43:35;93493.91;;;20.40;93.85
10466;BME280;5280;42.600;23.556;2022-09-03T09:46:14;93491.59;;;20.37;92.99
10466;BME280;5280;42.600;23.556;2022-09-03T09:48:48;93564.84;;;20.99;91.85
10466;BME280;5280;42.600;23.556;2022-09-03T09:51:21;93477.16;;;20.61;91.98
10466;BME280;5280;42.600;23.556;2022-09-03T09:53:59;93485.28;;;20.68;90.83
10466;BME280;5280;42.600;23.556;2022-09-03T09:56:26;93575.97;;;21.19;90.04
10466;BME280;5280;42.600;23.556;2022-09-03T09:59:07;93507.91;;;20.73;92.14
10466;BME280;5280;42.600;23.556;2022-09-03T10:01:37;93501.59;;;20.89;87.10
10466;BME280;5280;42.600;23.556;2022-09-03T10:04:10;93582.63;;;21.46;88.20
10466;BME280;5280;42.600;23.556;2022-09-03T10:06:38;93554.94;;;21.37;87.48
10466;BME280;5280;42.600;23.556;2022-09-03T10:09:31;93556.47;;;21.40;88.65
10466;BME280;5280;42.600;23.556;2022-09-03T10:12:08;93601.78;;;21.66;84.80
10466;BME280;5280;42.600;23.556;2022-09-03T10:14:43;93579.97;;;21.61;86.35
10466;BME280;5280;42.600;23.556;2022-09-03T10:17:17;93552.56;;;21.42;84.83
10466;BME280;5280;42.600;23.556;2022-09-03T10:19:51;93584.16;;;21.78;84.09
10466;BME280;5280;42.600;23.556;2022-09-03T10:22:40;93581.19;;;21.87;79.81
10466;BME280;5280;42.600;23.556;2022-09-03T10:25:13;93570.53;;;21.79;82.59
10466;BME280;5280;42.600;23.556;2022-09-03T10:27:40;93582.41;;;21.85;79.47
10466;BME280;5280;42.600;23.556;2022-09-03T10:30:10;93580.72;;;21.84;81.99
10466;BME280;5280;42.600;23.556;2022-09-03T10:32:44;93574.56;;;21.98;84.60
10466;BME280;5280;42.600;23.556;2022-09-03T10:35:20;93529.00;;;21.44;83.00
10466;BME280;5280;42.600;23.556;2022-09-03T10:37:54;93584.81;;;21.80;81.25
10466;BME280;5280;42.600;23.556;2022-09-03T10:40:33;93580.00;;;21.75;81.18
10466;BME280;5280;42.600;23.556;2022-09-03T10:43:18;93558.25;;;21.62;81.00
10466;BME280;5280;42.600;23.556;2022-09-03T10:45:59;93543.41;;;21.52;82.92
10466;BME280;5280;42.600;23.556;2022-09-03T10:51:37;93570.50;;;21.65;80.55
10466;BME280;5280;42.600;23.556;2022-09-03T10:54:18;93581.84;;;21.75;82.11
10466;BME280;5280;42.600;23.556;2022-09-03T10:56:57;93563.84;;;21.90;78.80
10466;BME280;5280;42.600;23.556;2022-09-03T10:59:37;93588.00;;;21.98;77.24
10466;BME280;5280;42.600;23.556;2022-09-03T11:02:30;93582.69;;;21.90;77.85
10466;BME280;5280;42.600;23.556;2022-09-03T11:05:03;93588.06;;;21.90;80.31
10466;BME280;5280;42.600;23.556;2022-09-03T11:07:35;93583.00;;;21.95;80.82
10466;BME280;5280;42.600;23.556;2022-09-03T11:10:11;93573.06;;;21.96;79.16
10466;BME280;5280;42.600;23.556;2022-09-03T11:12:43;93584.69;;;21.96;78.94
10466;BME280;5280;42.600;23.556;2022-09-03T11:15:16;93578.09;;;21.99;82.40
10466;BME280;5280;42.600;23.556;2022-09-03T11:17:49;93574.56;;;21.98;76.22
10466;BME280;5280;42.600;23.556;2022-09-03T11:20:20;93586.22;;;21.90;79.54
10466;BME280;5280;42.600;23.556;2022-09-03T11:22:50;93582.00;;;21.96;81.01
10466;BME280;5280;42.600;23.556;2022-09-03T11:25:19;93583.63;;;21.97;82.05
10466;BME280;5280;42.600;23.556;2022-09-03T11:27:55;93573.03;;;21.81;78.41
10466;BME280;5280;42.600;23.556;2022-09-03T11:30:33;93583.53;;;21.90;78.78
10466;BME280;5280;42.600;23.556;2022-09-03T11:33:06;93581.94;;;21.81;80.28
10466;BME280;5280;42.600;23.556;2022-09-03T11:35:38;93540.22;;;21.48;81.77
10466;BME280;5280;42.600;23.556;2022-09-03T11:38:20;93547.56;;;21.39;78.32
10466;BME280;5280;42.600;23.556;2022-09-03T11:41:00;93581.94;;;21.81;78.97
10466;BME280;5280;42.600;23.556;2022-09-03T11:43:31;93567.03;;;21.94;83.82
10466;BME280;5280;42.600;23.556;2022-09-03T11:46:07;93571.84;;;21.98;83.66
10466;BME280;5280;42.600;23.556;2022-09-03T11:48:40;93579.03;;;22.06;81.36
10466;BME280;5280;42.600;23.556;2022-09-03T11:51:20;93580.50;;;22.08;78.04
10466;BME280;5280;42.600;23.556;2022-09-03T11:53:56;93578.47;;;22.10;76.12
10466;BME280;5280;42.600;23.556;2022-09-03T11:56:23;93555.78;;;21.90;77.73
10466;BME280;5280;42.600;23.556;2022-09-03T11:59:06;93566.75;;;22.03;77.21
10466;BME280;5280;42.600;23.556;2022-09-03T12:01:47;93568.03;;;22.22;77.20
10466;BME280;5280;42.600;23.556;2022-09-03T12:04:18;93572.50;;;22.29;77.89
10466;BME280;5280;42.600;23.556;2022-09-03T12:09:56;93568.78;;;22.30;77.42
10466;BME280;5280;42.600;23.556;2022-09-03T12:12:41;93548.38;;;22.21;77.39
10466;BME280;5280;42.600;23.556;2022-09-03T12:15:20;93560.50;;;22.32;76.36
10466;BME280;5280;42.600;23.556;2022-09-03T12:17:52;93559.44;;;22.26;73.34
10466;BME280;5280;42.600;23.556;2022-09-03T12:20:36;93558.88;;;22.31;69.76
10466;BME280;5280;42.600;23.556;2022-09-03T12:23:06;93565.09;;;22.31;73.38
10466;BME280;5280;42.600;23.556;2022-09-03T12:25:42;93556.16;;;22.31;72.53
10466;BME280;5280;42.600;23.556;2022-09-03T12:28:15;93558.19;;;22.29;69.98
10466;BME280;5280;42.600;23.556;2022-09-03T12:30:45;93550.59;;;22.18;73.72
10466;BME280;5280;42.600;23.556;2022-09-03T12:33:15;93489.81;;;21.79;74.68
10466;BME280;5280;42.600;23.556;2022-09-03T12:35:54;93535.19;;;22.12;71.93
10466;BME280;5280;42.600;23.556;2022-09-03T12:38:23;93551.88;;;22.22;74.32
10466;BME280;5280;42.600;23.556;2022-09-03T12:40:50;93545.69;;;22.21;75.03
10466;BME280;5280;42.600;23.556;2022-09-03T12:43:17;93552.84;;;22.14;73.18
10466;BME280;5280;42.600;23.556;2022-09-03T12:45:46;93544.09;;;22.12;72.19
10466;BME280;5280;42.600;23.556;2022-09-03T12:48:17;93535.69;;;22.01;72.86
10466;BME280;5280;42.600;23.556;2022-09-03T12:50:45;93558.03;;;22.16;78.28
10466;BME280;5280;42.600;23.556;2022-09-03T12:53:23;93553.66;;;22.29;74.85
10466;BME280;5280;42.600;23.556;2022-09-03T12:55:52;93549.47;;;22.27;75.92
10466;BME280;5280;42.600;23.556;2022-09-03T12:58:23;93548.84;;;22.25;74.47
10466;BME280;5280;42.600;23.556;2022-09-03T13:00:56;93475.88;;;21.90;75.40
10466;BME280;5280;42.600;23.556;2022-09-03T13:03:28;93536.97;;;22.19;72.17
10466;BME280;5280;42.600;23.556;2022-09-03T13:05:58;93543.44;;;22.40;70.88
10466;BME280;5280;42.600;23.556;2022-09-03T13:08:29;93532.91;;;22.45;71.14
10466;BME280;5280;42.600;23.556;2022-09-03T13:10:58;93484.31;;;22.02;72.77
10466;BME280;5280;42.600;23.556;2022-09-03T13:13:31;93503.97;;;22.17;70.71
10466;BME280;5280;42.600;23.556;2022-09-03T13:16:26;93526.84;;;22.21;71.20
10466;BME280;5280;42.600;23.556;2022-09-03T13:21:32;93440.91;;;21.76;73.13
10466;BME280;5280;42.600;23.556;2022-09-03T13:24:27;93464.19;;;21.98;73.48
10466;BME280;5280;42.600;23.556;2022-09-03T13:27:05;93477.00;;;22.11;73.12
10466;BME280;5280;42.600;23.556;2022-09-03T13:29:42;93524.03;;;22.29;74.01